Aitana Del Carmen — EDCN — position and weather

sailwx.info

Track history (hours):
 
Tides and Currents Weather Stations Pressure Air Temp Water Temp Dewpoint Dewpoint Depression Visibility Wind Speed Wind Dir Waves Ship Positions

Aitana Del Carmen

Last reported at 2017-Nov-14 10:24 UTC. Time now 2017-Nov-21 06:01 UTC.
Position N 35°58' W 005°21'.

Length 27 m.

Type: Ship. MMSI: 224131460.

Date/timePositionNaut miles runAvg speedWind from/ knotsBaromVisibWave heightAir tempDewpointWater temp
2017-Nov-14 10:24N 35°58' W 005°21'3 8.2
2017-Nov-14 10:00N 35°55' W 005°20'0 0.0
2017-Nov-14 09:30N 35°55' W 005°20'2 4.5
2017-Nov-14 09:00N 35°57' W 005°20'8 0.2
2017-Nov-13 01:33N 36°04' W 005°22'0 4.4
2017-Nov-13 01:30N 36°04' W 005°22'1 1.1
2017-Nov-13 01:00N 36°05' W 005°22'1 0.8
2017-Nov-13 00:16N 36°05' W 005°23'  
2017-Nov-06 22:55N 35°57' W 005°20'4 8.5
2017-Nov-06 22:30N 35°54' W 005°19'0 0.9
2017-Nov-06 22:00N 35°54' W 005°19'0 0.0
2017-Nov-06 21:30N 35°54' W 005°19'0 0.0
2017-Nov-06 21:00N 35°54' W 005°19'0 0.0
2017-Nov-06 20:30N 35°54' W 005°19'  
Track history (hours):
 
Tides and Currents Weather Stations Pressure Air Temp Water Temp Dewpoint Dewpoint Depression Visibility Wind Speed Wind Dir Waves Ship Positions

Aitana Del Carmen

Last reported at 2017-Nov-14 10:24 UTC. Time now 2017-Nov-21 06:01 UTC.
Position N 35°58' W 005°21'.

Length 27 m.

Type: Ship. MMSI: 224131460.

Date/timePositionNaut miles runAvg speedWind from/ knotsBaromVisibWave heightAir tempDewpointWater temp
2017-Nov-14 10:24N 35°58' W 005°21'3 8.2
2017-Nov-14 10:00N 35°55' W 005°20'0 0.0
2017-Nov-14 09:30N 35°55' W 005°20'2 4.5
2017-Nov-14 09:00N 35°57' W 005°20'8 0.2
2017-Nov-13 01:33N 36°04' W 005°22'0 4.4
2017-Nov-13 01:30N 36°04' W 005°22'1 1.1
2017-Nov-13 01:00N 36°05' W 005°22'1 0.8
2017-Nov-13 00:16N 36°05' W 005°23'  
2017-Nov-06 22:55N 35°57' W 005°20'4 8.5
2017-Nov-06 22:30N 35°54' W 005°19'0 0.9
2017-Nov-06 22:00N 35°54' W 005°19'0 0.0
2017-Nov-06 21:30N 35°54' W 005°19'0 0.0
2017-Nov-06 21:00N 35°54' W 005°19'0 0.0
2017-Nov-06 20:30N 35°54' W 005°19'  

Dump ship's entire track history